Time;durP1;ratioP1;P1;durP2;ratioP2;P2;SDS_P1;SDS_P2;PMS_P1;PMS_P2;Temp;Humidity;BMP_temperature;BMP_pressure;BME280_temperature;BME280_humidity;BME280_pressure;Samples;Min_cycle;Max_cycle;Signal;HPM_P1;HPM_P2
2022/04/04 00:00:08;;;;;;;13.50;10.67;;;;;;;4.02;98.69;101140.34;5056568;28;20453;-42
2022/04/04 00:02:35;;;;;;;10.87;9.90;;;;;;;4.03;98.72;101131.47;5056572;28;20437;-44
2022/04/04 00:05:04;;;;;;;10.10;9.50;;;;;;;4.04;99.03;101133.09;5055627;28;21007;-42
2022/04/04 00:07:31;;;;;;;11.90;9.73;;;;;;;4.02;99.09;101121.88;5056326;28;20438;-44
2022/04/04 00:10:01;;;;;;;11.00;10.10;;;;;;;4.03;98.59;101120.91;5056472;28;20435;-43
2022/04/04 00:12:28;;;;;;;11.10;10.00;;;;;;;4.01;98.50;101113.13;5056283;28;20453;-43
2022/04/04 00:14:57;;;;;;;10.53;9.90;;;;;;;4.00;98.39;101103.56;5055490;28;20455;-43
2022/04/04 00:17:24;;;;;;;10.80;9.93;;;;;;;4.02;98.47;101111.31;5056009;28;20475;-43
2022/04/04 00:19:52;;;;;;;10.57;9.87;;;;;;;4.01;98.40;101107.00;5056338;28;20439;-44
2022/04/04 00:22:20;;;;;;;10.90;9.87;;;;;;;4.01;98.40;101091.16;5056306;28;20793;-43
2022/04/04 00:24:47;;;;;;;10.83;9.90;;;;;;;4.02;98.27;101092.84;5054914;28;20972;-42
2022/04/04 00:27:16;;;;;;;10.93;9.90;;;;;;;4.03;98.42;101083.97;5055847;28;20432;-42
2022/04/04 00:29:44;;;;;;;13.67;10.20;;;;;;;4.01;98.51;101075.34;5055896;28;20453;-43
2022/04/04 00:32:11;;;;;;;10.87;10.00;;;;;;;4.04;98.44;101083.81;5055608;28;20799;-43
2022/04/04 00:34:39;;;;;;;9.50;9.00;;;;;;;4.05;98.30;101064.34;5055319;28;20997;-43
2022/04/04 00:37:07;;;;;;;11.43;10.27;;;;;;;4.08;98.56;101060.59;5055225;28;20446;-42
2022/04/04 00:39:34;;;;;;;10.37;9.60;;;;;;;4.10;98.61;101056.00;5055482;28;20458;-42
2022/04/04 00:42:02;;;;;;;11.03;10.10;;;;;;;4.12;98.54;101061.97;5054996;28;20431;-43
2022/04/04 00:44:31;;;;;;;11.23;9.70;;;;;;;4.13;98.26;101058.34;5054059;28;20451;-43
2022/04/04 00:46:58;;;;;;;12.03;10.83;;;;;;;4.13;98.46;101053.88;5055090;28;20438;-44
2022/04/04 00:49:26;;;;;;;10.27;9.50;;;;;;;4.11;98.23;101044.47;5055104;28;20435;-43
2022/04/04 00:51:55;;;;;;;10.43;9.13;;;;;;;4.09;98.09;101041.94;5055237;28;20435;-42
2022/04/04 00:54:23;;;;;;;10.87;9.57;;;;;;;4.09;97.59;101030.59;5054791;28;20458;-42
2022/04/04 00:56:51;;;;;;;9.70;9.00;;;;;;;4.06;97.46;101020.34;5054424;28;20490;-43
2022/04/04 00:59:22;;;;;;;21.00;10.43;;;;;;;4.07;97.70;101014.88;5054608;28;20478;-47
2022/04/04 01:01:51;;;;;;;10.37;9.57;;;;;;;4.07;97.27;101022.81;5055093;28;20435;-42
2022/04/04 01:04:19;;;;;;;9.20;8.80;;;;;;;4.05;96.93;101008.09;5054289;28;21000;-42
2022/04/04 01:06:47;;;;;;;9.63;9.10;;;;;;;4.05;96.85;100992.28;5054301;28;20470;-45
2022/04/04 01:09:14;;;;;;;9.70;9.10;;;;;;;4.04;96.66;100991.44;5054806;28;20427;-43
2022/04/04 01:12:06;;;;;;;12.43;8.90;;;;;;;4.06;96.39;100980.75;5054654;28;20475;-42
2022/04/04 01:14:35;;;;;;;9.63;8.90;;;;;;;4.03;96.94;100983.69;5054258;28;20451;-42
2022/04/04 01:17:05;;;;;;;9.90;8.90;;;;;;;4.02;96.43;100976.72;5054105;28;20442;-43
2022/04/04 01:19:33;;;;;;;10.83;9.93;;;;;;;4.02;96.84;100974.09;5054388;28;20471;-42
2022/04/04 01:22:01;;;;;;;13.70;9.27;;;;;;;3.99;96.87;100969.13;5053946;28;20946;-44
2022/04/04 01:24:30;;;;;;;10.23;9.53;;;;;;;4.00;96.95;100960.22;5053726;28;20948;-44
2022/04/04 01:26:57;;;;;;;10.70;9.10;;;;;;;3.98;97.07;100954.25;5054294;28;20798;-45
2022/04/04 01:29:25;;;;;;;11.17;9.70;;;;;;;3.98;97.62;100948.97;5054218;28;20436;-42
2022/04/04 01:31:54;;;;;;;10.00;9.13;;;;;;;3.97;97.57;100955.25;5054666;28;20435;-43
2022/04/04 01:34:22;;;;;;;10.07;9.17;;;;;;;3.96;97.58;100945.66;5054920;28;20451;-44
2022/04/04 01:36:51;;;;;;;14.77;9.50;;;;;;;3.96;97.82;100929.84;5053938;28;20489;-44
2022/04/04 01:39:18;;;;;;;11.13;10.30;;;;;;;3.94;98.04;100923.88;5054878;28;20471;-42
2022/04/04 01:41:47;;;;;;;10.93;9.93;;;;;;;3.91;97.60;100915.28;5054825;28;20446;-42
2022/04/04 01:44:15;;;;;;;11.23;10.47;;;;;;;3.94;97.60;100910.69;5054623;28;20451;-42
2022/04/04 01:46:43;;;;;;;10.37;9.87;;;;;;;3.96;97.82;100898.19;5045271;28;20827;-43
2022/04/04 01:49:11;;;;;;;11.30;10.40;;;;;;;3.97;97.50;100902.47;5054615;28;20431;-42
2022/04/04 01:51:40;;;;;;;14.70;11.00;;;;;;;3.99;97.47;100896.06;5054768;28;20439;-44
2022/04/04 01:54:07;;;;;;;10.80;10.30;;;;;;;4.00;97.16;100884.53;5054402;28;20454;-42
2022/04/04 01:56:35;;;;;;;11.50;10.50;;;;;;;4.03;97.38;100880.78;5053658;28;20470;-43
2022/04/04 01:59:04;;;;;;;11.00;10.50;;;;;;;4.06;97.49;100883.09;5054684;28;20471;-43
2022/04/04 02:01:34;;;;;;;12.90;10.70;;;;;;;4.07;97.45;100877.66;5054115;28;20439;-43
2022/04/04 02:04:02;;;;;;;11.03;10.40;;;;;;;4.11;97.64;100867.63;5053973;28;20466;-45
2022/04/04 02:06:30;;;;;;;11.37;10.47;;;;;;;4.16;97.68;100860.91;5053671;28;20474;-43
2022/04/04 02:08:58;;;;;;;12.20;10.87;;;;;;;4.20;97.99;100845.63;5054243;28;20466;-43
2022/04/04 02:11:26;;;;;;;13.57;11.03;;;;;;;4.24;98.48;100844.34;5054116;28;20445;-44
2022/04/04 02:13:54;;;;;;;12.40;11.20;;;;;;;4.28;98.70;100840.38;5053927;28;20451;-43
2022/04/04 02:16:23;;;;;;;15.13;13.53;;;;;;;4.28;98.79;100835.09;5053609;28;20470;-43
2022/04/04 02:18:51;;;;;;;16.60;13.90;;;;;;;4.32;99.17;100832.03;5054042;28;20901;-43
2022/04/04 02:21:19;;;;;;;13.10;12.03;;;;;;;4.34;98.81;100822.13;5054199;28;20445;-44
2022/04/04 02:23:46;;;;;;;19.47;13.70;;;;;;;4.39;99.04;100826.97;5054122;28;20451;-44
2022/04/04 02:26:15;;;;;;;13.83;12.30;;;;;;;4.39;98.98;100819.03;5053944;28;20463;-43
2022/04/04 02:28:42;;;;;;;13.03;11.80;;;;;;;4.40;98.90;100818.88;5054051;28;20772;-43
2022/04/04 02:31:10;;;;;;;12.57;11.67;;;;;;;4.43;98.65;100807.16;5058174;28;20985;-44
2022/04/04 02:33:39;;;;;;;11.90;11.10;;;;;;;4.38;99.04;100801.53;5058473;28;20473;-44
2022/04/04 02:36:08;;;;;;;13.07;12.07;;;;;;;4.40;98.83;100791.63;5057661;28;20474;-43
2022/04/04 02:38:36;;;;;;;12.00;11.13;;;;;;;4.39;99.06;100782.88;5057996;28;20617;-44
2022/04/04 02:41:04;;;;;;;12.57;11.63;;;;;;;4.40;98.75;100773.16;5057785;28;20799;-43
2022/04/04 02:43:33;;;;;;;12.23;11.27;;;;;;;4.45;98.76;100765.59;5057781;28;20450;-45
2022/04/04 02:46:01;;;;;;;12.63;11.53;;;;;;;4.43;98.71;100767.56;5049052;28;20538;-43
2022/04/04 02:48:28;;;;;;;12.03;11.10;;;;;;;4.39;98.14;100753.03;5058144;28;20427;-43
2022/04/04 02:50:58;;;;;;;14.47;11.53;;;;;;;4.38;98.22;100751.38;5058079;28;21036;-43
2022/04/04 02:53:25;;;;;;;12.43;11.20;;;;;;;4.39;98.15;100742.47;5057881;28;20451;-45
2022/04/04 02:58:39;;;;;;;16.00;11.70;;;;;;;4.37;98.09;100737.34;5057889;28;20471;-44
2022/04/04 03:01:06;;;;;;;13.70;12.60;;;;;;;4.38;98.42;100736.34;5057230;28;20783;-44
2022/04/04 03:03:34;;;;;;;14.73;13.10;;;;;;;4.35;98.17;100722.63;5056999;28;20459;-45
2022/04/04 03:06:04;;;;;;;14.07;12.80;;;;;;;4.30;97.88;100701.16;5056690;28;20466;-47
2022/04/04 03:08:32;;;;;;;14.23;12.90;;;;;;;4.36;97.50;100695.25;5056687;28;20427;-42
2022/04/04 03:10:59;;;;;;;13.57;12.80;;;;;;;4.35;97.50;100693.59;5057360;28;20441;-43
2022/04/04 03:13:27;;;;;;;13.97;12.83;;;;;;;4.33;97.48;100691.09;5057926;28;20458;-44
2022/04/04 03:15:55;;;;;;;14.07;12.93;;;;;;;4.33;97.10;100690.31;5057316;28;20463;-42
2022/04/04 03:18:22;;;;;;;14.77;13.40;;;;;;;4.30;97.44;100666.84;5057526;28;20802;-42
2022/04/04 03:20:50;;;;;;;15.33;13.30;;;;;;;4.28;97.74;100672.28;5057502;28;20809;-43
2022/04/04 03:23:20;;;;;;;14.43;12.57;;;;;;;4.28;97.30;100666.16;5057243;28;20458;-43
2022/04/04 03:25:49;;;;;;;14.00;12.80;;;;;;;4.27;97.38;100664.53;5056890;28;20459;-43
2022/04/04 03:28:17;;;;;;;12.63;11.60;;;;;;;4.27;97.30;100661.91;5057449;28;20427;-42
2022/04/04 03:30:44;;;;;;;12.93;12.00;;;;;;;4.21;97.62;100641.41;5057106;28;20805;-42
2022/04/04 03:33:12;;;;;;;12.43;11.60;;;;;;;4.18;97.32;100633.81;5056732;28;20455;-42
2022/04/04 03:35:39;;;;;;;12.90;12.20;;;;;;;4.17;97.09;100632.13;5056664;28;20465;-43
2022/04/04 03:38:07;;;;;;;13.00;12.23;;;;;;;4.15;96.55;100618.28;5057441;28;20427;-42
2022/04/04 03:40:37;;;;;;;12.40;11.10;;;;;;;4.13;96.69;100615.78;5056628;28;20471;-43
2022/04/04 03:43:05;;;;;;;13.00;12.07;;;;;;;4.10;96.40;100612.63;5056755;28;20447;-43
2022/04/04 03:45:33;;;;;;;13.40;12.40;;;;;;;4.11;96.12;100611.66;5047835;28;20471;-42
2022/04/04 03:48:00;;;;;;;12.57;11.60;;;;;;;4.10;95.48;100602.91;5056424;28;20435;-44
2022/04/04 03:50:29;;;;;;;12.07;10.93;;;;;;;4.09;95.58;100585.41;5056584;28;20431;-45
2022/04/04 03:52:57;;;;;;;13.27;12.13;;;;;;;4.09;95.14;100592.53;5056337;28;20474;-43
2022/04/04 03:55:28;;;;;;;12.77;11.97;;;;;;;4.08;95.42;100580.31;5056061;28;20485;-47
2022/04/04 03:57:58;;;;;;;12.93;11.80;;;;;;;4.10;95.25;100565.97;5055997;28;20423;-45
2022/04/04 04:00:26;;;;;;;13.37;12.40;;;;;;;4.09;95.55;100564.28;5055349;28;20474;-45
2022/04/04 04:02:54;;;;;;;12.63;11.57;;;;;;;4.07;95.51;100546.97;5056113;28;20436;-44
2022/04/04 04:05:22;;;;;;;13.33;12.10;;;;;;;4.04;95.91;100547.28;5055940;28;20461;-43
2022/04/04 04:07:50;;;;;;;13.07;11.97;;;;;;;4.00;96.10;100536.25;5056416;28;20438;-43
2022/04/04 04:10:17;;;;;;;13.03;12.03;;;;;;;3.98;96.35;100524.19;5055674;28;20438;-48
2022/04/04 04:12:46;;;;;;;13.00;12.00;;;;;;;3.97;96.43;100512.00;5055814;28;20432;-43
2022/04/04 04:15:18;;;;;;;14.83;13.20;;;;;;;3.95;97.05;100509.50;5054996;28;20463;-47
2022/04/04 04:17:46;;;;;;;12.97;12.07;;;;;;;3.95;96.75;100488.41;5055793;28;20427;-44
2022/04/04 04:20:20;;;;;;;12.60;11.73;;;;;;;3.94;97.01;100491.22;5055454;28;20475;-43
2022/04/04 04:22:49;;;;;;;13.70;12.80;;;;;;;3.92;97.29;100486.09;5056298;28;20461;-42
2022/04/04 04:25:18;;;;;;;13.30;12.37;;;;;;;3.90;97.37;100472.22;5055529;28;20463;-43
2022/04/04 04:27:46;;;;;;;14.47;13.00;;;;;;;3.90;97.46;100462.50;5055958;28;20423;-42
2022/04/04 04:30:16;;;;;;;15.23;14.20;;;;;;;3.90;97.86;100457.25;5055857;28;20442;-43
2022/04/04 04:32:46;;;;;;;15.30;13.97;;;;;;;3.93;97.75;100437.63;5056049;28;20438;-42
2022/04/04 04:35:13;;;;;;;14.67;13.43;;;;;;;3.94;97.68;100433.19;5055599;28;20466;-44
2022/04/04 04:37:41;;;;;;;15.80;14.20;;;;;;;3.95;98.02;100424.25;5055930;28;20432;-45
2022/04/04 04:40:10;;;;;;;16.60;15.30;;;;;;;3.97;98.22;100424.94;5055723;28;20478;-43
2022/04/04 04:42:38;;;;;;;16.27;14.73;;;;;;;3.99;98.37;100418.50;5055661;28;20438;-43
2022/04/04 04:45:07;;;;;;;16.93;15.43;;;;;;;3.98;98.58;100411.56;5049988;28;20470;-46
2022/04/04 04:47:37;;;;;;;17.97;16.20;;;;;;;3.95;99.02;100403.97;5035553;28;20934;-43
2022/04/04 04:50:11;;;;;;;18.73;17.23;;;;;;;3.99;99.18;100399.22;5055523;28;20466;-43
2022/04/04 04:52:39;;;;;;;21.10;18.80;;;;;;;3.99;99.42;100389.50;5054558;28;20458;-42
2022/04/04 04:55:11;;;;;;;20.80;18.87;;;;;;;4.01;99.45;100381.41;5056069;28;20455;-42
2022/04/04 04:57:38;;;;;;;20.30;18.37;;;;;;;3.99;99.33;100365.75;5055682;28;20431;-43
2022/04/04 05:00:08;;;;;;;20.70;18.80;;;;;;;4.00;99.21;100356.03;5055644;28;20482;-44
2022/04/04 05:02:38;;;;;;;23.13;20.90;;;;;;;3.97;99.39;100343.16;5055343;28;20457;-43
2022/04/04 05:05:06;;;;;;;21.13;19.10;;;;;;;3.99;99.23;100323.53;5059106;22;20459;-52
2022/04/04 05:07:34;;;;;;;22.53;20.23;;;;;;;4.01;98.85;100326.81;5032989;28;20454;-46
2022/04/04 05:10:01;;;;;;;23.20;21.03;;;;;;;3.97;98.80;100322.06;5032644;28;20484;-48
2022/04/04 05:12:29;;;;;;;24.67;22.30;;;;;;;3.99;98.74;100298.97;5032570;28;20431;-49
2022/04/04 05:14:57;;;;;;;25.20;22.60;;;;;;;3.97;98.69;100295.66;5032155;28;20468;-47
2022/04/04 05:17:24;;;;;;;24.77;22.33;;;;;;;3.94;98.25;100288.09;5032410;28;20435;-46
2022/04/04 05:19:59;;;;;;;25.27;23.17;;;;;;;3.94;98.36;100275.72;5032399;28;20463;-48
2022/04/04 05:22:27;;;;;;;24.57;22.07;;;;;;;3.91;97.88;100263.66;5032330;28;20438;-46
2022/04/04 05:24:55;;;;;;;24.23;22.13;;;;;;;3.88;98.08;100258.72;5031826;28;20464;-45
2022/04/04 05:27:23;;;;;;;24.67;22.10;;;;;;;3.88;97.94;100271.91;5032358;28;20435;-46
2022/04/04 05:29:50;;;;;;;23.73;21.37;;;;;;;3.87;97.40;100256.25;5032403;28;20436;-48
2022/04/04 05:32:19;;;;;;;23.40;21.00;;;;;;;3.87;97.46;100261.53;5032478;28;20440;-46
2022/04/04 05:34:47;;;;;;;23.57;21.30;;;;;;;3.86;97.63;100244.06;5031548;28;20476;-44
2022/04/04 05:37:16;;;;;;;23.03;20.73;;;;;;;3.88;97.51;100234.19;5032249;28;20455;-48
2022/04/04 05:39:44;;;;;;;25.50;23.00;;;;;;;3.91;97.03;100228.56;5032232;28;20432;-51
2022/04/04 05:42:12;;;;;;;26.70;23.80;;;;;;;3.90;97.31;100234.81;5031816;28;20435;-46
2022/04/04 05:44:39;;;;;;;26.67;23.77;;;;;;;3.85;96.71;100221.31;5029962;28;20452;-45
2022/04/04 05:47:09;;;;;;;24.83;21.97;;;;;;;3.84;96.75;100209.13;5025394;28;20432;-46
2022/04/04 05:49:37;;;;;;;24.83;22.40;;;;;;;3.85;96.51;100206.28;5032264;28;20531;-50
2022/04/04 05:52:05;;;;;;;25.93;23.37;;;;;;;3.85;96.26;100201.03;5031694;28;20472;-51
2022/04/04 05:54:34;;;;;;;27.27;24.63;;;;;;;3.86;95.94;100189.50;5031416;28;20540;-46
2022/04/04 05:57:02;;;;;;;27.60;24.70;;;;;;;3.87;96.19;100175.31;5031724;28;20439;-46
2022/04/04 05:59:29;;;;;;;28.60;23.60;;;;;;;3.83;96.31;100176.63;5032024;28;20435;-48
2022/04/04 06:01:57;;;;;;;27.77;24.80;;;;;;;3.89;95.74;100172.50;5031778;28;20428;-49
2022/04/04 06:04:24;;;;;;;28.70;25.30;;;;;;;3.94;95.86;100169.38;5031401;28;21133;-46
2022/04/04 06:06:52;;;;;;;26.20;23.50;;;;;;;3.97;95.80;100169.88;5031575;28;20973;-44
2022/04/04 06:09:20;;;;;;;29.93;26.83;;;;;;;3.95;95.88;100156.00;5031692;28;20433;-45
2022/04/04 06:11:48;;;;;;;30.83;25.17;;;;;;;4.02;96.23;100138.53;5030491;28;20487;-45
2022/04/04 06:14:16;;;;;;;28.83;25.73;;;;;;;4.03;96.42;100126.16;5025390;28;20449;-45
2022/04/04 06:16:44;;;;;;;27.60;25.07;;;;;;;4.10;96.35;100129.75;5011395;28;20468;-46
2022/04/04 06:19:16;;;;;;;26.93;24.53;;;;;;;4.08;96.80;100127.28;5011877;28;20857;-46
2022/04/04 06:21:44;;;;;;;26.70;23.90;;;;;;;4.08;97.63;100113.28;5011523;28;20956;-44
2022/04/04 06:24:11;;;;;;;27.50;25.03;;;;;;;4.12;96.94;100110.09;5011657;28;20843;-47
2022/04/04 06:26:39;;;;;;;29.23;26.50;;;;;;;4.11;97.08;100105.00;5011279;28;20469;-46
2022/04/04 06:29:09;;;;;;;27.13;24.63;;;;;;;4.08;96.41;100113.28;5011884;28;20436;-47
2022/04/04 06:31:37;;;;;;;26.23;23.87;;;;;;;4.10;96.53;100092.81;5011668;28;20507;-48
2022/04/04 06:34:07;;;;;;;27.00;24.43;;;;;;;4.12;96.28;100094.28;5011768;28;20529;-45
2022/04/04 06:36:37;;;;;;;24.77;22.40;;;;;;;4.11;96.38;100082.09;5011431;28;20472;-45
2022/04/04 06:39:05;;;;;;;27.03;24.57;;;;;;;4.15;96.57;100082.59;5011556;28;20908;-47
2022/04/04 06:41:32;;;;;;;27.00;24.70;;;;;;;4.20;96.30;100072.31;5011731;28;20441;-46
2022/04/04 06:44:00;;;;;;;26.40;23.60;;;;;;;4.16;96.39;100048.09;5011770;28;20437;-46
2022/04/04 06:46:29;;;;;;;25.27;23.07;;;;;;;4.16;96.37;100069.19;5019866;28;20457;-46
2022/04/04 06:48:57;;;;;;;27.97;25.10;;;;;;;4.14;96.49;100071.19;5031293;28;20473;-46
2022/04/04 06:51:24;;;;;;;28.37;23.70;;;;;;;4.11;96.37;100044.31;5030854;28;20476;-48
2022/04/04 06:53:53;;;;;;;25.57;23.30;;;;;;;4.11;96.61;100041.69;5031209;28;20432;-46
2022/04/04 06:56:21;;;;;;;24.63;22.53;;;;;;;4.12;96.22;100028.31;5030647;28;20468;-48
2022/04/04 06:58:49;;;;;;;26.93;24.43;;;;;;;4.16;95.76;100021.72;5031478;28;20432;-46
2022/04/04 07:01:16;;;;;;;24.80;22.80;;;;;;;4.15;96.10;100032.44;5030990;28;20522;-50
2022/04/04 07:03:45;;;;;;;23.30;21.07;;;;;;;4.09;96.09;100006.75;5031107;28;20470;-46
2022/04/04 07:06:13;;;;;;;24.90;22.53;;;;;;;4.10;96.22;99995.19;5030757;28;20872;-48
2022/04/04 07:08:41;;;;;;;23.77;21.67;;;;;;;4.06;96.59;99997.34;5031137;28;20431;-47
2022/04/04 07:11:10;;;;;;;23.13;21.30;;;;;;;4.00;96.26;99957.66;5030655;28;20464;-46
2022/04/04 07:13:38;;;;;;;24.23;22.20;;;;;;;3.98;95.49;99971.00;5030970;28;20486;-48
2022/04/04 07:16:06;;;;;;;23.03;21.13;;;;;;;4.05;94.82;99971.13;5032652;28;20842;-50
2022/04/04 07:18:39;;;;;;;25.67;23.03;;;;;;;4.09;94.90;99977.72;5034564;28;20855;-46
2022/04/04 07:21:08;;;;;;;24.77;22.47;;;;;;;4.06;95.71;99959.59;5034535;28;20438;-46
2022/04/04 07:23:36;;;;;;;21.23;19.67;;;;;;;4.04;95.81;99953.66;5034606;28;20993;-46
2022/04/04 07:26:04;;;;;;;22.83;21.00;;;;;;;4.06;95.19;99943.78;5033917;28;20494;-48
2022/04/04 07:28:31;;;;;;;23.00;21.20;;;;;;;4.06;95.50;99946.41;5034548;28;20527;-46
2022/04/04 07:30:59;;;;;;;22.33;20.33;;;;;;;4.06;95.40;99949.06;5034081;28;20442;-46
2022/04/04 07:33:27;;;;;;;21.60;19.70;;;;;;;4.08;95.58;99947.06;5034593;28;20428;-46
2022/04/04 07:35:55;;;;;;;20.53;18.93;;;;;;;4.07;95.68;99927.75;5033922;28;20468;-46
2022/04/04 07:38:25;;;;;;;21.87;20.07;;;;;;;4.12;95.72;99911.41;5034649;28;20432;-45
2022/04/04 07:40:56;;;;;;;21.43;19.60;;;;;;;4.04;96.77;99920.19;5034106;28;20447;-45
2022/04/04 07:43:25;;;;;;;19.20;17.70;;;;;;;3.98;96.63;99904.22;5034153;28;20482;-47
2022/04/04 07:45:52;;;;;;;20.83;19.03;;;;;;;3.91;96.74;99902.28;5025292;28;20527;-45
2022/04/04 07:48:20;;;;;;;19.67;18.17;;;;;;;3.91;96.41;99898.84;5033843;28;20486;-46
2022/04/04 07:50:48;;;;;;;18.80;17.50;;;;;;;3.88;96.06;99883.38;5033889;28;20432;-47
2022/04/04 07:53:15;;;;;;;20.87;19.07;;;;;;;3.98;95.64;99877.84;5034045;28;20476;-45
2022/04/04 07:55:45;;;;;;;20.33;18.70;;;;;;;3.89;96.31;99854.19;5033392;28;20464;-49
2022/04/04 07:58:14;;;;;;;19.03;17.40;;;;;;;3.90;96.00;99862.91;5034101;28;20432;-48
2022/04/04 08:00:42;;;;;;;18.50;17.20;;;;;;;3.91;95.21;99846.09;5033905;28;20531;-47
2022/04/04 08:03:09;;;;;;;17.57;16.27;;;;;;;3.96;95.04;99837.66;5033977;28;20424;-47
2022/04/04 08:05:37;;;;;;;18.10;16.80;;;;;;;3.97;95.23;99837.50;5033336;28;20475;-50
2022/04/04 08:08:05;;;;;;;17.87;16.53;;;;;;;3.97;95.30;99834.03;5033690;28;20432;-47
2022/04/04 08:10:33;;;;;;;18.87;17.27;;;;;;;4.02;94.73;99827.22;5033683;28;20438;-46
2022/04/04 08:13:02;;;;;;;18.67;17.27;;;;;;;4.01;95.64;99825.56;5033765;28;20478;-47
2022/04/04 08:15:30;;;;;;;15.97;14.97;;;;;;;3.97;96.18;99791.81;5033117;28;20846;-49
2022/04/04 08:17:58;;;;;;;15.73;14.90;;;;;;;3.96;96.96;99798.09;5033612;28;20867;-49
2022/04/04 08:20:25;;;;;;;17.43;16.20;;;;;;;4.03;95.89;99801.66;5033261;28;20431;-47
2022/04/04 08:22:53;;;;;;;19.33;17.93;;;;;;;4.06;96.37;99788.13;5033407;28;20424;-48
2022/04/04 08:25:21;;;;;;;17.00;15.67;;;;;;;4.04;97.01;99792.72;5032807;28;20470;-46
2022/04/04 08:27:49;;;;;;;18.47;17.07;;;;;;;4.05;97.24;99782.00;5032361;28;20494;-47
2022/04/04 08:30:18;;;;;;;16.23;14.97;;;;;;;3.98;97.80;99778.44;5033113;28;20961;-45
2022/04/04 08:32:47;;;;;;;18.47;16.90;;;;;;;4.02;97.18;99771.81;5033308;28;20476;-46
2022/04/04 08:35:15;;;;;;;16.30;15.10;;;;;;;3.98;97.86;99774.97;5032632;28;20464;-46
2022/04/04 08:37:44;;;;;;;15.70;14.40;;;;;;;3.88;99.09;99760.22;5033058;28;20949;-49
2022/04/04 08:40:14;;;;;;;17.30;16.13;;;;;;;3.90;98.54;99752.97;5033186;28;20539;-48
2022/04/04 08:42:42;;;;;;;15.53;14.53;;;;;;;3.82;98.44;99747.72;5033084;28;21026;-48
2022/04/04 08:45:11;;;;;;;17.10;16.00;;;;;;;3.88;97.90;99739.13;5027222;28;20469;-46
2022/04/04 08:47:41;;;;;;;16.77;15.57;;;;;;;3.86;97.83;99732.38;5030592;28;20435;-47
2022/04/04 08:50:09;;;;;;;15.70;14.90;;;;;;;3.90;97.52;99721.31;5032831;28;20428;-49
2022/04/04 08:52:38;;;;;;;16.13;14.93;;;;;;;3.85;97.72;99715.72;5032556;28;20994;-50
2022/04/04 08:55:08;;;;;;;13.70;13.00;;;;;;;3.85;97.12;99705.19;5032079;28;20469;-48
2022/04/04 08:57:35;;;;;;;14.93;13.93;;;;;;;3.82;97.47;99704.75;5032888;28;20438;-47
2022/04/04 09:00:04;;;;;;;14.00;13.23;;;;;;;3.77;96.69;99722.91;5032978;28;20458;-48
2022/04/04 09:02:32;;;;;;;17.77;16.10;;;;;;;3.84;95.64;99674.56;5032480;28;20502;-46
2022/04/04 09:05:05;;;;;;;15.80;14.90;;;;;;;3.96;95.28;99677.56;5032204;28;20460;-46
2022/04/04 09:07:33;;;;;;;15.67;14.70;;;;;;;3.96;96.07;99680.22;5032781;28;20428;-49
2022/04/04 09:10:01;;;;;;;16.57;15.30;;;;;;;3.97;96.70;99668.66;5032606;28;20432;-45
2022/04/04 09:12:29;;;;;;;16.70;15.70;;;;;;;3.96;96.68;99663.56;5032283;28;20472;-45
2022/04/04 09:14:58;;;;;;;17.20;16.00;;;;;;;3.94;96.82;99658.47;5031877;28;20468;-47
2022/04/04 09:17:28;;;;;;;17.30;16.20;;;;;;;3.85;97.72;99636.63;5032753;28;20438;-46
2022/04/04 09:19:57;;;;;;;19.23;17.93;;;;;;;3.91;96.62;99629.81;5032372;28;20436;-48
2022/04/04 09:22:26;;;;;;;15.83;15.03;;;;;;;3.95;95.92;99622.34;5032262;28;20424;-44
2022/04/04 09:24:56;;;;;;;15.07;14.27;;;;;;;4.05;94.93;99625.53;5031736;28;20466;-50
2022/04/04 09:27:26;;;;;;;16.57;15.53;;;;;;;4.01;95.35;99616.34;5032259;28;20458;-45
2022/04/04 09:29:56;;;;;;;15.90;15.00;;;;;;;4.00;95.13;99615.56;5032142;28;20440;-48
2022/04/04 09:32:35;;;;;;;14.23;13.47;;;;;;;4.07;94.58;99599.78;5032129;28;20468;-47
2022/04/04 09:35:10;;;;;;;15.60;14.50;;;;;;;4.12;93.71;99608.00;5031899;28;20464;-45
2022/04/04 09:37:41;;;;;;;16.80;15.70;;;;;;;4.09;94.95;99597.81;5031712;28;20427;-48
2022/04/04 09:40:13;;;;;;;14.80;14.00;;;;;;;4.15;94.72;99589.16;5031981;28;20432;-46
2022/04/04 09:42:43;;;;;;;15.60;14.77;;;;;;;4.20;94.99;99563.03;5032288;28;20474;-48
2022/04/04 09:45:13;;;;;;;15.00;14.30;;;;;;;4.24;94.35;99573.03;5026011;28;20564;-48
2022/04/04 09:47:50;;;;;;;17.20;16.07;;;;;;;4.25;94.45;99564.13;5030005;28;20878;-47
2022/04/04 09:50:31;;;;;;;17.30;16.23;;;;;;;4.29;94.52;99552.19;5031880;28;20542;-48
2022/04/04 09:53:01;;;;;;;16.30;15.30;;;;;;;4.33;94.71;99536.81;5031968;28;20476;-49
2022/04/04 09:55:30;;;;;;;17.90;16.73;;;;;;;4.39;94.03;99533.44;5031428;28;20468;-51
2022/04/04 09:57:59;;;;;;;16.33;15.40;;;;;;;4.47;93.97;99512.19;5031985;28;20525;-47
2022/04/04 10:00:28;;;;;;;14.97;14.17;;;;;;;4.39;95.03;99517.59;5031763;28;20439;-49
2022/04/04 10:02:57;;;;;;;14.70;14.00;;;;;;;4.38;94.81;99500.94;5031719;28;20474;-48
2022/04/04 10:05:26;;;;;;;14.90;14.20;;;;;;;4.41;93.89;99495.28;5031156;28;20471;-48
2022/04/04 10:07:56;;;;;;;15.90;15.00;;;;;;;4.50;93.33;99484.59;5031522;28;20949;-49
2022/04/04 10:10:31;;;;;;;16.10;15.17;;;;;;;4.50;93.37;99488.06;5031567;28;20436;-50
2022/04/04 10:12:59;;;;;;;16.00;15.20;;;;;;;4.61;92.97;99500.75;5031670;28;20554;-50
2022/04/04 10:15:32;;;;;;;17.90;16.90;;;;;;;4.67;92.79;99472.78;5031034;28;20476;-48
2022/04/04 10:18:00;;;;;;;17.63;16.70;;;;;;;4.68;92.75;99480.53;5031765;28;20434;-48
2022/04/04 10:20:29;;;;;;;16.90;15.90;;;;;;;4.70;92.84;99454.72;5031197;28;20440;-50
2022/04/04 10:22:57;;;;;;;17.10;16.07;;;;;;;4.72;93.62;99428.16;5031453;28;20541;-48
2022/04/04 10:25:28;;;;;;;19.43;17.77;;;;;;;4.73;93.32;99449.06;5030891;28;20471;-48
2022/04/04 10:27:57;;;;;;;18.40;17.10;;;;;;;4.75;92.63;99440.97;5031306;28;20424;-45
2022/04/04 10:30:34;;;;;;;19.63;17.93;;;;;;;4.75;91.02;99439.13;5031425;28;20524;-50
2022/04/04 10:33:03;;;;;;;20.37;18.90;;;;;;;4.81;90.86;99421.69;5031547;28;20476;-48
2022/04/04 10:35:32;;;;;;;19.23;17.43;;;;;;;4.84;89.30;99427.41;5030792;28;20518;-51
2022/04/04 10:38:05;;;;;;;20.90;18.83;;;;;;;4.87;88.22;99423.56;5031427;28;20455;-50
2022/04/04 10:40:34;;;;;;;20.93;19.37;;;;;;;4.91;87.22;99428.28;5031160;28;20500;-50
2022/04/04 10:43:11;;;;;;;20.60;19.00;;;;;;;4.91;85.24;99396.59;5031525;28;20441;-49
2022/04/04 10:45:57;;;;;;;20.30;19.30;;;;;;;5.02;83.01;99403.16;5029521;28;20498;-49
2022/04/04 10:48:31;;;;;;;21.63;20.00;;;;;;;5.11;83.29;99390.63;5027255;28;20946;-46
2022/04/04 10:51:04;;;;;;;21.47;19.93;;;;;;;5.12;83.59;99387.78;5033032;28;20432;-49
2022/04/04 10:53:48;;;;;;;23.67;22.13;;;;;;;5.15;83.71;99387.41;5035296;28;20474;-45
2022/04/04 10:56:22;;;;;;;21.03;19.77;;;;;;;5.15;83.71;99371.53;5034800;28;20970;-47
2022/04/04 10:58:51;;;;;;;20.00;18.60;;;;;;;5.23;82.30;99373.19;5035368;28;20428;-45
2022/04/04 11:01:20;;;;;;;21.50;20.20;;;;;;;5.30;80.69;99363.47;5034699;28;20436;-45
2022/04/04 11:03:59;;;;;;;20.50;18.73;;;;;;;5.35;80.26;99356.59;5035213;28;20799;-49
2022/04/04 11:09:32;;;;;;;21.07;19.67;;;;;;;5.44;78.55;99346.66;4971557;28;20432;-43
2022/04/04 11:12:11;;;;;;;19.30;17.73;;;;;;;5.49;74.82;99338.97;4955358;29;20988;-42
2022/04/04 11:14:46;;;;;;;21.00;19.80;;;;;;;5.64;72.69;99329.06;4954791;28;20533;-42
2022/04/04 11:17:19;;;;;;;20.70;19.57;;;;;;;5.72;72.70;99293.66;4955465;28;20441;-43
2022/04/04 11:19:48;;;;;;;21.13;20.00;;;;;;;5.76;72.51;99330.13;4955100;28;20798;-43
2022/04/04 11:22:17;;;;;;;20.20;19.37;;;;;;;5.85;73.49;99310.44;4954976;28;20436;-43
2022/04/04 11:24:51;;;;;;;21.07;19.90;;;;;;;5.86;73.68;99317.34;4955155;28;20428;-43
2022/04/04 11:27:20;;;;;;;22.17;20.77;;;;;;;5.89;73.81;99330.16;4955322;28;20507;-43
2022/04/04 11:29:48;;;;;;;22.80;21.50;;;;;;;5.89;71.85;99322.22;4955554;28;20462;-41
2022/04/04 11:32:24;;;;;;;22.07;20.97;;;;;;;5.93;68.66;99302.28;4954403;28;20439;-43
2022/04/04 11:34:56;;;;;;;24.73;23.03;;;;;;;5.97;67.63;99308.00;4953892;28;20466;-43